Forside
METAR-TAF:

METAR-TAF

Lufthavne :

Odiham, England

Breddekreds: 51-14N, længdekreds: 000-57W, højde: 123 m

Aktuelle vejr

Denne rapport blev lavet for 35 minutter siden, kl. 00:50 UTC
Vind 2 kt fra vestnordvest
Temperatur 9°C
Fugtighed 71%
Tryk 1034 hPa
Sigt 10 km eller mere

METAR: EGVO 250050Z AUTO 29002KT 9999 NCD 09/04 Q1034

Tid: 02:25 (01:25 UTC)


TAF: fraværende

Vejrobservationer og prognoser fra mere end 4000 lufthavne (METAR og TAF).

De gule og røde prikker repræsenterer de meteorologiske stationer.

Flyt musen over at se navnet på stationen.

Så klik over at se vejr observationer og prognoser.

At skifte det kort: Klik på de grønne knapper med et sort kors for at zoome ind; på den grønne knap med en bindestreg for at zoome ud; eller på de grønne pile for tilstødende kort.


METAR-TAF: